Time;durP1;ratioP1;P1;durP2;ratioP2;P2;SDS_P1;SDS_P2;PMS_P1;PMS_P2;Temp;Humidity;BMP_temperature;BMP_pressure;BME280_temperature;BME280_humidity;BME280_pressure;Samples;Min_cycle;Max_cycle;Signal;HPM_P1;HPM_P2
2021/11/24 00:02:42;;;;;;;19.30;8.88;;;;;;;5.55;62.19;102359.72;8027912;28;20037;-65
2021/11/24 00:06:33;;;;;;;24.83;9.75;;;;;;;5.57;62.10;102367.47;8013704;28;20044;-66
2021/11/24 00:10:23;;;;;;;25.83;11.20;;;;;;;5.56;62.11;102371.84;8011224;28;20033;-66
2021/11/24 00:14:14;;;;;;;27.92;11.25;;;;;;;5.57;62.18;102367.47;8016343;28;20033;-66
2021/11/24 00:18:05;;;;;;;25.70;10.23;;;;;;;5.56;61.87;102370.97;8030247;28;20400;-65
2021/11/24 00:21:55;;;;;;;26.27;11.13;;;;;;;5.58;62.08;102371.81;8014046;28;20033;-65
2021/11/24 00:25:46;;;;;;;27.90;10.80;;;;;;;5.58;62.15;102369.22;8011873;28;20510;-66
2021/11/24 00:29:36;;;;;;;23.55;9.75;;;;;;;5.59;61.86;102360.50;8010979;28;20039;-64
2021/11/24 00:33:27;;;;;;;23.55;10.10;;;;;;;5.58;62.25;102359.63;8018984;28;20158;-65
2021/11/24 00:37:18;;;;;;;23.80;10.15;;;;;;;5.54;61.90;102354.53;8023834;28;20071;-65
2021/11/24 00:41:08;;;;;;;26.33;10.73;;;;;;;5.59;61.88;102355.28;8022572;28;20028;-66
2021/11/24 00:44:59;;;;;;;24.65;9.82;;;;;;;5.58;62.02;102359.63;8020893;28;20039;-66
2021/11/24 00:48:49;;;;;;;34.17;11.98;;;;;;;5.59;61.79;102357.91;8018620;28;20433;-65
2021/11/24 00:52:40;;;;;;;26.48;11.52;;;;;;;5.59;62.26;102358.75;8013139;28;20029;-66
2021/11/24 00:56:31;;;;;;;25.10;11.27;;;;;;;5.58;62.17;102344.00;8018981;28;20040;-66
2021/11/24 01:00:22;;;;;;;27.77;11.10;;;;;;;5.55;62.25;102344.06;8016783;28;20041;-64
2021/11/24 01:04:13;;;;;;;31.00;11.57;;;;;;;5.60;61.93;102350.03;8012347;28;20033;-67
2021/11/24 01:08:04;;;;;;;26.50;11.07;;;;;;;5.60;61.89;102350.03;8013981;28;20059;-66
2021/11/24 01:11:55;;;;;;;34.53;12.25;;;;;;;5.61;62.08;102350.88;8010536;28;20025;-66
2021/11/24 01:15:46;;;;;;;32.33;10.55;;;;;;;5.60;62.05;102349.19;8025907;28;20131;-64
2021/11/24 01:19:36;;;;;;;29.45;11.80;;;;;;;5.61;61.90;102348.28;8008286;28;20041;-65
2021/11/24 01:23:27;;;;;;;35.53;13.20;;;;;;;5.59;61.89;102348.31;8016811;28;20037;-65
2021/11/24 01:27:17;;;;;;;32.45;11.32;;;;;;;5.60;62.21;102338.75;8013601;28;20029;-65
2021/11/24 01:31:08;;;;;;;38.72;12.70;;;;;;;5.59;62.01;102331.81;8021639;28;20047;-66
2021/11/24 01:34:58;;;;;;;31.73;11.77;;;;;;;5.59;61.99;102337.91;8013987;28;20081;-66
2021/11/24 01:38:49;;;;;;;39.38;12.15;;;;;;;5.60;62.33;102338.75;8034820;28;20033;-65
2021/11/24 01:42:40;;;;;;;48.30;12.32;;;;;;;5.60;61.89;102331.78;8017943;28;20093;-64
2021/11/24 01:46:31;;;;;;;27.67;10.57;;;;;;;5.60;62.33;102323.13;8016788;28;20040;-65
2021/11/24 01:50:21;;;;;;;28.05;11.43;;;;;;;5.60;61.99;102320.50;8015043;28;20037;-66
2021/11/24 01:54:14;;;;;;;34.45;12.48;;;;;;;5.58;62.15;102311.84;8013478;28;20025;-65
2021/11/24 01:58:05;;;;;;;33.20;12.45;;;;;;;5.62;62.19;102318.72;8011889;28;20106;-66
2021/11/24 02:01:56;;;;;;;30.40;12.90;;;;;;;5.62;62.03;102314.38;8012974;28;20389;-66
2021/11/24 02:05:46;;;;;;;33.08;12.70;;;;;;;5.62;62.44;102316.97;8009543;28;20499;-65
2021/11/24 02:09:37;;;;;;;50.33;13.75;;;;;;;5.60;62.36;102302.25;8009730;28;20047;-65
2021/11/24 02:13:27;;;;;;;48.58;13.13;;;;;;;5.62;61.99;102303.94;8008705;28;20029;-65
2021/11/24 02:17:18;;;;;;;35.30;12.02;;;;;;;5.63;62.22;102296.97;8007116;28;20548;-65
2021/11/24 02:21:10;;;;;;;48.38;12.60;;;;;;;5.60;62.10;102279.63;8036102;28;20055;-66
2021/11/24 02:25:00;;;;;;;26.35;11.27;;;;;;;5.64;62.35;102280.44;8013155;28;20040;-66
2021/11/24 02:28:51;;;;;;;35.80;11.90;;;;;;;5.63;62.03;102269.16;8015843;28;20048;-65
2021/11/24 02:32:41;;;;;;;38.65;10.55;;;;;;;5.62;62.31;102272.66;8017176;28;20037;-66
2021/11/24 02:36:32;;;;;;;52.58;11.68;;;;;;;5.62;62.10;102266.56;8016026;28;20489;-66
2021/11/24 02:40:33;;;;;;;29.65;11.35;;;;;;;5.63;62.05;102263.09;8015617;28;20079;-66
2021/11/24 02:44:35;;;;;;;36.35;11.63;;;;;;;5.63;62.06;102266.56;8013828;28;20033;-65
2021/11/24 02:48:26;;;;;;;33.72;12.68;;;;;;;5.61;62.19;102257.88;8011853;28;20052;-66
2021/11/24 02:52:20;;;;;;;32.10;12.70;;;;;;;5.61;62.04;102254.44;8011686;28;20029;-66
2021/11/24 02:56:11;;;;;;;27.08;10.95;;;;;;;5.61;62.11;102249.22;8006512;28;20045;-66
2021/11/24 03:00:25;;;;;;;28.05;11.93;;;;;;;5.59;62.24;102244.06;8007599;28;20748;-66
2021/11/24 03:04:15;;;;;;;21.63;9.48;;;;;;;5.60;62.20;102237.91;8008137;28;20036;-65
2021/11/24 03:08:06;;;;;;;28.00;11.43;;;;;;;5.57;62.35;102222.38;8009853;28;20459;-65
2021/11/24 03:11:57;;;;;;;29.27;11.18;;;;;;;5.59;62.27;102227.56;8019105;28;20071;-66
2021/11/24 03:15:48;;;;;;;28.08;11.45;;;;;;;5.58;61.95;102221.47;8008979;28;20029;-66
2021/11/24 03:19:38;;;;;;;29.30;10.88;;;;;;;5.58;62.41;102220.63;8011948;28;20037;-66
2021/11/24 03:23:29;;;;;;;22.67;9.32;;;;;;;5.57;62.12;102226.72;8016460;28;20598;-63
2021/11/24 03:27:19;;;;;;;23.23;11.20;;;;;;;5.56;62.13;102220.63;8006060;28;20043;-65
2021/11/24 03:31:10;;;;;;;26.15;11.88;;;;;;;5.56;62.02;102211.97;8011346;28;20028;-66
2021/11/24 03:35:01;;;;;;;25.38;10.73;;;;;;;5.56;62.16;102207.59;8013793;28;20045;-66
2021/11/24 03:38:52;;;;;;;27.55;10.52;;;;;;;5.56;62.15;102209.34;8016178;28;20075;-65
2021/11/24 03:42:46;;;;;;;26.48;10.77;;;;;;;5.54;62.09;102198.97;8014824;28;20376;-65
2021/11/24 03:46:36;;;;;;;28.67;11.52;;;;;;;5.56;62.30;102188.50;8013323;28;20033;-65
2021/11/24 03:50:27;;;;;;;27.58;11.45;;;;;;;5.56;61.85;102198.94;8011354;28;20140;-66
2021/11/24 03:54:18;;;;;;;27.00;9.63;;;;;;;5.54;62.00;102183.34;8011872;28;20032;-66
2021/11/24 03:58:09;;;;;;;29.50;11.30;;;;;;;5.51;62.31;102172.13;8026165;28;20031;-65
2021/11/24 04:01:59;;;;;;;31.45;11.80;;;;;;;5.54;62.20;102172.06;8024835;28;20036;-66
2021/11/24 04:05:52;;;;;;;30.48;11.70;;;;;;;5.53;62.30;102170.34;8021655;28;20033;-65
2021/11/24 04:09:43;;;;;;;32.50;13.18;;;;;;;5.49;62.15;102160.88;8021308;28;20037;-65
2021/11/24 04:13:34;;;;;;;33.22;12.55;;;;;;;5.49;61.93;102159.13;8019159;28;20028;-66
2021/11/24 04:17:24;;;;;;;32.05;11.85;;;;;;;5.48;61.87;102159.16;8018682;28;20024;-65
2021/11/24 04:21:16;;;;;;;31.48;11.35;;;;;;;5.48;62.03;102146.13;8014970;28;20138;-64
2021/11/24 04:25:08;;;;;;;32.10;11.27;;;;;;;5.47;62.09;102145.31;8011587;28;20044;-66
2021/11/24 04:28:58;;;;;;;36.60;10.98;;;;;;;5.48;62.16;102140.91;8011295;28;20048;-65
2021/11/24 04:32:51;;;;;;;31.88;12.05;;;;;;;5.46;62.35;102138.38;8016962;28;20032;-66
2021/11/24 04:36:42;;;;;;;37.33;11.98;;;;;;;5.48;62.38;102133.94;8009768;28;20151;-66
2021/11/24 04:40:32;;;;;;;32.28;11.50;;;;;;;5.49;62.00;102135.69;8017981;28;20048;-66
2021/11/24 04:44:23;;;;;;;32.38;12.70;;;;;;;5.49;62.38;102132.22;8023668;28;20032;-66
2021/11/24 04:48:13;;;;;;;32.35;13.02;;;;;;;5.50;62.02;102137.41;8019792;28;20029;-66
2021/11/24 04:52:04;;;;;;;31.42;12.77;;;;;;;5.50;62.30;102129.56;8019703;28;20032;-64
2021/11/24 04:55:55;;;;;;;30.95;11.02;;;;;;;5.51;61.85;102127.84;8018215;28;20033;-65
2021/11/24 04:59:49;;;;;;;37.13;14.10;;;;;;;5.50;62.00;102124.38;8018168;28;20032;-65
2021/11/24 05:03:40;;;;;;;31.33;11.95;;;;;;;5.51;61.75;102130.44;8022397;28;20033;-64
2021/11/24 05:07:30;;;;;;;31.45;12.40;;;;;;;5.48;62.06;102127.88;8016911;28;20043;-65
2021/11/24 05:11:21;;;;;;;32.65;12.88;;;;;;;5.50;62.04;102128.72;8015871;28;20382;-66
2021/11/24 05:15:21;;;;;;;29.88;11.82;;;;;;;5.47;62.09;102127.06;8010156;28;20043;-66
2021/11/24 05:19:18;;;;;;;33.50;12.90;;;;;;;5.47;61.85;102134.00;8013392;28;20045;-66
2021/11/24 05:23:12;;;;;;;33.78;12.75;;;;;;;5.45;62.05;102120.16;8010375;28;20118;-66
2021/11/24 05:27:03;;;;;;;30.25;11.93;;;;;;;5.44;61.97;102116.69;8008089;28;20125;-65
2021/11/24 05:30:54;;;;;;;28.23;11.15;;;;;;;5.47;61.76;102128.81;8010712;28;20055;-65
2021/11/24 05:34:44;;;;;;;24.70;10.55;;;;;;;5.46;61.91;102120.13;8023301;28;20399;-66
2021/11/24 05:38:35;;;;;;;29.25;12.13;;;;;;;5.46;62.19;102120.13;8022095;28;20025;-66
2021/11/24 05:42:27;;;;;;;27.13;11.80;;;;;;;5.49;62.00;102122.66;8022082;28;20068;-65
2021/11/24 05:50:44;;;;;;;28.58;10.07;;;;;;;5.47;62.00;102111.41;7990818;28;20044;-65
2021/11/24 05:54:35;;;;;;;26.35;10.45;;;;;;;5.45;62.03;102105.38;8033893;28;20603;-65
2021/11/24 05:58:27;;;;;;;22.55;10.68;;;;;;;5.48;61.79;102115.72;8016163;28;20037;-65
2021/11/24 06:02:17;;;;;;;23.92;10.75;;;;;;;5.49;62.27;102109.63;8016942;28;20033;-65
2021/11/24 06:06:08;;;;;;;22.95;12.07;;;;;;;5.48;62.14;102109.63;8010750;28;20075;-66
2021/11/24 06:09:58;;;;;;;24.25;11.18;;;;;;;5.49;62.12;102100.94;8012441;28;20400;-64
2021/11/24 06:13:49;;;;;;;21.30;10.68;;;;;;;5.47;62.09;102095.78;8008776;28;20033;-64
2021/11/24 06:17:40;;;;;;;19.77;9.57;;;;;;;5.47;62.16;102089.72;8006908;28;20036;-65
2021/11/24 06:21:30;;;;;;;21.55;9.40;;;;;;;5.46;61.84;102091.47;8008187;28;20032;-66
2021/11/24 06:25:21;;;;;;;22.95;9.65;;;;;;;5.47;62.13;102095.78;8007516;28;20036;-65
2021/11/24 06:29:11;;;;;;;20.08;11.10;;;;;;;5.47;61.84;102090.56;8014471;28;20029;-64
2021/11/24 06:33:02;;;;;;;21.38;10.43;;;;;;;5.47;62.15;102087.09;8019326;28;20032;-64
2021/11/24 06:36:53;;;;;;;17.58;9.20;;;;;;;5.48;61.78;102076.63;8019623;28;20082;-65
2021/11/24 06:40:45;;;;;;;21.13;9.60;;;;;;;5.49;61.83;102078.34;8033373;28;20040;-65
2021/11/24 06:44:35;;;;;;;20.08;9.88;;;;;;;5.49;62.32;102075.72;8027373;28;20037;-66
2021/11/24 06:48:26;;;;;;;23.33;9.27;;;;;;;5.50;61.95;102069.63;8009929;28;20067;-64
2021/11/24 06:52:17;;;;;;;20.85;9.30;;;;;;;5.52;61.87;102067.81;8008789;28;20067;-64
2021/11/24 06:56:08;;;;;;;23.65;10.98;;;;;;;5.48;62.02;102066.19;8010389;28;20044;-65
2021/11/24 06:59:58;;;;;;;19.67;10.00;;;;;;;5.52;62.07;102065.22;8010366;28;20036;-63
2021/11/24 07:03:49;;;;;;;23.40;10.13;;;;;;;5.52;61.95;102064.34;8012238;28;20029;-66
2021/11/24 07:07:40;;;;;;;16.95;8.88;;;;;;;5.52;61.81;102065.22;8022311;28;20066;-65
2021/11/24 07:11:32;;;;;;;17.50;9.27;;;;;;;5.53;62.18;102071.28;8005290;28;20033;-65
2021/11/24 07:15:23;;;;;;;22.08;9.95;;;;;;;5.52;62.02;102075.63;8004600;28;20455;-66
2021/11/24 07:19:16;;;;;;;19.55;9.93;;;;;;;5.55;62.03;102074.72;8016061;28;20062;-66
2021/11/24 07:23:06;;;;;;;17.67;8.25;;;;;;;5.54;61.80;102073.88;8012664;28;20064;-65
2021/11/24 07:26:57;;;;;;;20.73;9.27;;;;;;;5.54;61.88;102070.41;8006760;28;20044;-65
2021/11/24 07:30:48;;;;;;;19.13;9.63;;;;;;;5.52;61.90;102073.03;8007117;28;20544;-65
2021/11/24 07:34:38;;;;;;;17.15;8.45;;;;;;;5.53;62.30;102068.69;8009302;28;20029;-65
2021/11/24 07:38:29;;;;;;;20.98;9.32;;;;;;;5.53;61.95;102068.69;8008216;28;20493;-66
2021/11/24 07:42:19;;;;;;;14.90;7.70;;;;;;;5.53;62.04;102069.53;8010206;28;20037;-66
2021/11/24 07:46:10;;;;;;;17.10;10.07;;;;;;;5.54;62.10;102071.25;8007858;28;20484;-64
2021/11/24 07:50:00;;;;;;;19.42;8.32;;;;;;;5.51;62.06;102057.47;8005168;28;20043;-65
2021/11/24 07:53:51;;;;;;;18.55;8.63;;;;;;;5.55;62.00;102051.25;8006074;28;20314;-65
2021/11/24 07:57:42;;;;;;;17.15;9.23;;;;;;;5.55;62.09;102057.34;8014579;28;20497;-66
2021/11/24 08:01:32;;;;;;;22.10;9.57;;;;;;;5.58;62.11;102054.66;8024000;28;20052;-63
2021/11/24 08:05:23;;;;;;;17.55;9.35;;;;;;;5.60;62.12;102052.00;8018223;28;20497;-65
2021/11/24 08:09:13;;;;;;;14.25;7.88;;;;;;;5.62;62.16;102053.66;8016448;28;20437;-66
2021/11/24 08:13:04;;;;;;;18.63;8.90;;;;;;;5.62;62.05;102048.44;8016694;28;20090;-65
2021/11/24 08:16:55;;;;;;;15.05;8.13;;;;;;;5.65;62.32;102040.53;8014194;28;20027;-65
2021/11/24 08:20:47;;;;;;;18.52;9.35;;;;;;;5.66;62.08;102030.97;8013009;28;20033;-65
2021/11/24 08:24:37;;;;;;;20.60;10.40;;;;;;;5.70;62.16;102027.38;8017142;28;20488;-65
2021/11/24 08:28:28;;;;;;;18.90;9.57;;;;;;;5.72;61.87;102027.34;8005602;28;20090;-65
2021/11/24 08:32:18;;;;;;;19.33;9.32;;;;;;;5.73;62.03;102023.81;8010470;28;20033;-66
2021/11/24 08:36:11;;;;;;;20.85;9.55;;;;;;;5.73;62.29;102019.47;8010950;28;20509;-66
2021/11/24 08:40:03;;;;;;;17.83;9.45;;;;;;;5.76;62.21;102021.16;8009631;28;20602;-66
2021/11/24 08:43:53;;;;;;;16.33;8.50;;;;;;;5.77;62.25;102023.69;8010889;28;20645;-65
2021/11/24 08:47:45;;;;;;;19.98;9.43;;;;;;;5.78;61.97;102025.41;8009881;28;20025;-65
2021/11/24 08:51:38;;;;;;;20.55;9.98;;;;;;;5.79;61.89;102021.91;8010036;28;20043;-65
2021/11/24 08:55:28;;;;;;;19.85;10.15;;;;;;;5.78;62.30;102008.91;8009787;28;20452;-65
2021/11/24 08:59:19;;;;;;;20.50;9.90;;;;;;;5.80;62.20;102010.59;8014193;28;20481;-65
2021/11/24 09:03:10;;;;;;;22.48;10.45;;;;;;;5.81;62.01;102006.25;8010310;28;20037;-66
2021/11/24 09:07:01;;;;;;;18.55;10.13;;;;;;;5.86;62.20;102009.53;8009331;28;20043;-64
2021/11/24 09:10:52;;;;;;;21.23;10.93;;;;;;;5.88;62.32;102005.16;8012984;28;20039;-65
2021/11/24 09:14:42;;;;;;;20.98;10.40;;;;;;;5.90;62.16;101996.38;8011897;28;20029;-66
2021/11/24 09:18:33;;;;;;;17.15;9.70;;;;;;;5.93;62.02;101992.84;8008907;28;20037;-65
2021/11/24 09:22:23;;;;;;;21.50;11.35;;;;;;;5.96;62.00;101987.53;8008597;28;20037;-66
2021/11/24 09:26:27;;;;;;;19.40;11.52;;;;;;;5.96;61.86;101983.19;8007030;28;20033;-65
2021/11/24 09:30:19;;;;;;;25.90;11.93;;;;;;;5.97;62.01;101984.88;8008519;28;20041;-64
2021/11/24 09:34:10;;;;;;;25.52;12.25;;;;;;;5.99;61.85;101983.06;8008597;28;20029;-65
2021/11/24 09:38:02;;;;;;;26.77;12.80;;;;;;;6.02;62.27;101979.50;8007210;28;20039;-65
2021/11/24 09:41:53;;;;;;;24.25;12.82;;;;;;;6.05;61.89;101971.63;8004500;28;20624;-65
2021/11/24 09:45:46;;;;;;;25.02;12.45;;;;;;;6.08;62.26;101966.31;8023774;28;20655;-66
2021/11/24 09:49:39;;;;;;;26.48;12.27;;;;;;;6.10;62.14;101960.13;7994069;28;20075;-65
2021/11/24 09:53:32;;;;;;;22.85;11.82;;;;;;;6.13;62.21;101956.59;8006560;28;20036;-66
2021/11/24 09:57:24;;;;;;;24.55;12.43;;;;;;;6.14;62.29;101949.63;8006334;28;20094;-65
2021/11/24 10:01:15;;;;;;;26.10;11.63;;;;;;;6.18;62.07;101949.44;8006224;28;20044;-66
2021/11/24 10:05:06;;;;;;;30.50;14.30;;;;;;;6.20;62.25;101952.88;8005848;28;20036;-66
2021/11/24 10:08:57;;;;;;;29.20;12.43;;;;;;;6.24;61.86;101945.81;8005523;28;20493;-65
2021/11/24 10:12:47;;;;;;;25.98;13.00;;;;;;;6.24;61.91;101935.38;8005551;28;20025;-66
2021/11/24 10:16:38;;;;;;;23.85;11.98;;;;;;;6.26;62.32;101923.16;8008677;28;20039;-65
2021/11/24 10:20:29;;;;;;;27.98;12.77;;;;;;;6.30;61.80;101927.38;8006060;28;20476;-65
2021/11/24 10:24:27;;;;;;;25.23;12.00;;;;;;;6.31;61.90;101911.63;8021189;28;20049;-65
2021/11/24 10:28:27;;;;;;;29.20;12.43;;;;;;;6.34;61.92;101908.09;8004868;28;20043;-65
2021/11/24 10:32:18;;;;;;;29.65;13.00;;;;;;;6.36;61.95;101908.88;8004552;28;20112;-65
2021/11/24 10:36:12;;;;;;;27.67;12.93;;;;;;;6.38;62.04;101897.50;8005106;28;20033;-65
2021/11/24 10:40:08;;;;;;;25.67;13.20;;;;;;;6.37;62.08;101893.19;8004858;28;20071;-65
2021/11/24 10:43:59;;;;;;;30.02;13.30;;;;;;;6.39;62.00;101888.75;8002379;28;20044;-66
2021/11/24 10:47:55;;;;;;;28.70;13.95;;;;;;;6.40;61.96;101879.16;8004346;28;20032;-65
2021/11/24 10:51:45;;;;;;;26.77;13.35;;;;;;;6.43;61.85;101866.00;8003680;28;20045;-65
2021/11/24 10:55:36;;;;;;;30.90;13.90;;;;;;;6.43;61.69;101859.03;8006144;28;20047;-66
2021/11/24 10:59:27;;;;;;;29.70;14.57;;;;;;;6.45;61.94;101849.41;8004944;28;20040;-65
2021/11/24 11:03:21;;;;;;;25.42;13.15;;;;;;;6.48;62.18;101848.44;8007444;28;20032;-65
2021/11/24 11:07:12;;;;;;;28.77;13.05;;;;;;;6.50;61.70;101833.59;8001704;28;20516;-64
2021/11/24 11:11:05;;;;;;;26.42;13.45;;;;;;;6.53;61.61;101839.56;8009712;28;20108;-65
2021/11/24 11:15:20;;;;;;;27.83;12.93;;;;;;;6.55;61.88;101823.88;8000623;28;20028;-65
2021/11/24 11:19:31;;;;;;;27.13;13.50;;;;;;;6.57;61.78;101820.28;8001749;28;20116;-65
2021/11/24 11:23:30;;;;;;;20.33;11.50;;;;;;;6.59;61.92;101818.47;8004157;28;20037;-65
2021/11/24 11:27:23;;;;;;;19.55;11.27;;;;;;;6.63;61.90;101815.75;8003927;28;20082;-65
2021/11/24 11:31:16;;;;;;;24.75;12.88;;;;;;;6.64;61.74;101799.16;8003799;28;20120;-64
2021/11/24 11:35:07;;;;;;;27.27;12.25;;;;;;;6.67;61.64;101786.03;8003691;28;20032;-66
2021/11/24 11:38:58;;;;;;;18.30;10.45;;;;;;;6.70;61.84;101783.31;8002275;28;20041;-65
2021/11/24 11:42:50;;;;;;;19.20;10.18;;;;;;;6.75;61.66;101784.88;8003902;28;20083;-66
2021/11/24 11:46:44;;;;;;;18.42;10.90;;;;;;;6.76;61.52;101770.91;8002860;28;20048;-65
2021/11/24 11:50:37;;;;;;;22.17;10.48;;;;;;;6.78;61.70;101761.25;8001380;28;20043;-65
2021/11/24 11:54:30;;;;;;;18.55;9.60;;;;;;;6.82;61.67;101759.38;8003649;28;20421;-65
2021/11/24 11:58:28;;;;;;;19.85;9.23;;;;;;;6.84;61.81;101749.75;8009652;28;20396;-64
2021/11/24 12:02:25;;;;;;;;;;;;;;;6.76;61.65;101739.56;8007956;28;20045;-64
2021/11/24 12:06:16;;;;;;;13.95;8.20;;;;;;;6.82;61.75;101726.28;8009638;28;19913;-65
2021/11/24 12:10:07;;;;;;;16.65;9.32;;;;;;;6.86;61.66;101729.63;8008672;28;20033;-64
2021/11/24 12:13:58;;;;;;;22.75;10.15;;;;;;;6.89;61.69;101721.69;8011420;28;20059;-63
2021/11/24 12:17:57;;;;;;;18.60;10.20;;;;;;;6.87;61.41;101702.63;8009781;28;20098;-65
2021/11/24 12:21:52;;;;;;;18.27;9.40;;;;;;;6.91;61.34;101701.59;8006939;28;20404;-65
2021/11/24 12:25:44;;;;;;;18.40;9.82;;;;;;;6.96;61.58;101686.59;8024525;28;20568;-64
2021/11/24 12:29:49;;;;;;;14.60;8.73;;;;;;;6.98;61.40;101679.53;8009233;28;20033;-65
2021/11/24 12:33:42;;;;;;;17.65;8.88;;;;;;;7.03;61.60;101675.00;8009054;28;20074;-64
2021/11/24 12:37:33;;;;;;;14.00;8.43;;;;;;;7.05;61.32;101670.56;8015570;28;20033;-64
2021/11/24 12:41:29;;;;;;;16.05;9.18;;;;;;;7.06;61.21;101663.56;8014716;28;20028;-65
2021/11/24 12:45:19;;;;;;;11.93;6.60;;;;;;;7.05;61.30;101656.66;8010080;28;20040;-65
2021/11/24 12:49:15;;;;;;;15.27;8.27;;;;;;;7.10;61.52;101657.31;8006316;28;20033;-64
2021/11/24 12:53:06;;;;;;;16.17;8.13;;;;;;;7.12;61.46;101639.84;8013353;28;20024;-65
2021/11/24 12:57:00;;;;;;;14.52;8.10;;;;;;;7.14;60.86;101638.00;8017406;28;20041;-65
2021/11/24 13:00:51;;;;;;;13.05;7.85;;;;;;;7.15;61.30;101629.25;8008053;28;20021;-65
2021/11/24 13:04:47;;;;;;;11.25;7.07;;;;;;;7.19;60.91;101620.38;8023759;28;20079;-65
2021/11/24 13:08:38;;;;;;;10.05;6.03;;;;;;;7.19;60.94;101623.84;8006414;28;20094;-65
2021/11/24 13:12:34;;;;;;;9.18;5.45;;;;;;;7.19;60.81;101623.84;8008042;28;20061;-66
2021/11/24 13:16:25;;;;;;;10.50;5.63;;;;;;;7.17;60.55;101617.84;8007909;28;20064;-65
2021/11/24 13:20:31;;;;;;;8.95;5.65;;;;;;;7.15;60.79;101617.03;8002413;28;20041;-65
2021/11/24 13:24:21;;;;;;;9.35;5.78;;;;;;;7.10;60.38;101611.13;8009772;28;20025;-65
2021/11/24 13:28:14;;;;;;;10.35;5.70;;;;;;;7.06;60.46;101596.50;8007434;28;20040;-65
2021/11/24 13:32:13;;;;;;;4.72;3.35;;;;;;;7.03;60.17;101599.25;8005677;28;20032;-66
2021/11/24 13:36:07;;;;;;;6.28;3.40;;;;;;;6.99;59.99;101595.91;8012977;28;20036;-65
2021/11/24 13:39:58;;;;;;;5.13;2.80;;;;;;;6.97;60.14;101587.25;8006343;28;20041;-65
2021/11/24 13:44:00;;;;;;;3.78;2.55;;;;;;;6.97;60.02;101582.03;8006948;28;20071;-63
2021/11/24 13:47:51;;;;;;;3.53;2.05;;;;;;;6.95;59.93;101580.41;8004806;28;20032;-64
2021/11/24 13:51:58;;;;;;;3.67;2.35;;;;;;;6.94;59.68;101570.88;8004724;28;20106;-65
2021/11/24 13:56:07;;;;;;;3.83;2.20;;;;;;;6.92;59.71;101576.16;8006195;28;20029;-64
2021/11/24 14:00:01;;;;;;;3.03;1.90;;;;;;;6.90;59.64;101575.38;8013009;28;20045;-65
2021/11/24 14:03:54;;;;;;;2.05;1.70;;;;;;;6.89;59.44;101565.81;8005842;28;20055;-65
2021/11/24 14:07:49;;;;;;;3.53;1.65;;;;;;;6.88;59.56;101566.75;8010066;28;20051;-63
2021/11/24 14:11:52;;;;;;;3.75;2.35;;;;;;;6.87;59.04;101558.97;8006446;28;20035;-64
2021/11/24 14:15:43;;;;;;;3.65;2.30;;;;;;;6.85;59.19;101564.25;8006214;28;20118;-65
2021/11/24 14:19:34;;;;;;;4.47;2.15;;;;;;;6.84;59.28;101553.88;8002363;28;20378;-64
2021/11/24 14:23:26;;;;;;;3.60;2.03;;;;;;;6.83;59.30;101553.03;8005733;28;20025;-64
2021/11/24 14:27:16;;;;;;;3.13;2.05;;;;;;;6.81;59.09;101539.16;8008381;28;20082;-65
2021/11/24 14:31:07;;;;;;;4.18;1.65;;;;;;;6.80;59.16;101528.78;8007252;28;20112;-66
2021/11/24 14:34:58;;;;;;;3.05;2.10;;;;;;;6.78;58.89;101515.78;8005298;28;20564;-64
2021/11/24 14:38:49;;;;;;;3.17;1.50;;;;;;;6.78;58.69;101510.56;8004119;28;20039;-64
2021/11/24 14:42:40;;;;;;;2.38;1.40;;;;;;;6.75;58.50;101495.03;8005893;28;20611;-64
2021/11/24 14:46:31;;;;;;;2.40;1.20;;;;;;;6.71;58.36;101496.03;8006420;28;20029;-65
2021/11/24 14:50:23;;;;;;;1.75;1.20;;;;;;;6.68;58.34;101493.53;8003742;28;20058;-65
2021/11/24 14:54:14;;;;;;;4.13;1.50;;;;;;;6.59;57.83;101489.50;8004280;28;20064;-66
2021/11/24 14:58:05;;;;;;;1.95;1.58;;;;;;;6.54;57.86;101494.09;8006078;28;20032;-65
2021/11/24 15:01:56;;;;;;;1.88;1.52;;;;;;;6.49;57.90;101482.97;8003082;28;20046;-66
2021/11/24 15:05:46;;;;;;;2.17;1.50;;;;;;;6.46;58.08;101482.25;8003408;28;20039;-64
2021/11/24 15:09:37;;;;;;;1.85;1.20;;;;;;;6.41;57.85;101477.19;8002847;28;20040;-65
2021/11/24 15:13:28;;;;;;;3.55;1.35;;;;;;;6.35;58.06;101469.59;8005914;28;20021;-66
2021/11/24 15:17:19;;;;;;;1.83;1.40;;;;;;;6.31;57.76;101460.19;8005100;28;20044;-66
2021/11/24 15:21:09;;;;;;;1.70;1.35;;;;;;;6.29;57.67;101456.81;8005930;28;20523;-64
2021/11/24 15:25:01;;;;;;;3.20;1.50;;;;;;;6.25;57.70;101452.63;8003377;28;20048;-65
2021/11/24 15:28:51;;;;;;;2.88;1.90;;;;;;;6.22;57.71;101444.91;8003768;28;20111;-64
2021/11/24 15:32:42;;;;;;;3.10;1.77;;;;;;;6.17;57.95;101444.25;8009738;28;20029;-65
2021/11/24 15:36:33;;;;;;;2.70;1.85;;;;;;;6.11;57.89;101429.66;8009603;28;20028;-66
2021/11/24 15:40:23;;;;;;;3.17;1.80;;;;;;;6.07;57.40;101427.22;8010528;28;20040;-65
2021/11/24 15:44:15;;;;;;;3.30;1.70;;;;;;;5.98;57.42;101420.59;8009667;28;20527;-65
2021/11/24 15:48:06;;;;;;;2.40;1.48;;;;;;;5.95;57.38;101417.28;8009638;28;20040;-63
2021/11/24 15:51:58;;;;;;;8.07;1.95;;;;;;;5.90;57.21;101412.22;8023858;28;20032;-65
2021/11/24 15:55:49;;;;;;;2.17;1.63;;;;;;;5.83;57.48;101409.91;8026107;28;20087;-64
2021/11/24 15:59:40;;;;;;;2.05;1.55;;;;;;;5.74;57.49;101399.81;8023070;28;20425;-65
2021/11/24 16:03:31;;;;;;;2.50;1.58;;;;;;;5.68;57.60;101387.91;8013622;28;20033;-65
2021/11/24 16:07:22;;;;;;;2.08;1.50;;;;;;;5.59;57.56;101388.22;8013303;28;20039;-66
2021/11/24 16:11:13;;;;;;;2.00;1.38;;;;;;;5.52;57.43;101398.00;8008459;28;20480;-65
2021/11/24 16:15:05;;;;;;;2.60;1.65;;;;;;;5.46;57.25;101386.97;8013690;28;20036;-65
2021/11/24 16:18:56;;;;;;;3.03;2.00;;;;;;;5.39;56.99;101382.91;8008862;28;20580;-65
2021/11/24 16:22:47;;;;;;;2.88;2.03;;;;;;;5.29;57.30;101373.72;8009748;28;20047;-66
2021/11/24 16:26:38;;;;;;;3.17;2.25;;;;;;;5.21;57.20;101363.56;8012227;28;20037;-65
2021/11/24 16:30:29;;;;;;;3.95;1.73;;;;;;;5.15;57.45;101369.84;8008364;28;20040;-65
2021/11/24 16:34:20;;;;;;;5.40;2.28;;;;;;;5.07;57.22;101366.63;8009755;28;20029;-66
2021/11/24 16:38:10;;;;;;;3.25;2.22;;;;;;;5.01;57.01;101364.25;8008547;28;20733;-66
2021/11/24 16:42:01;;;;;;;4.43;1.77;;;;;;;4.89;57.10;101361.22;8022907;28;20041;-65
2021/11/24 16:45:54;;;;;;;3.63;2.00;;;;;;;4.85;56.90;101363.09;8007962;28;20033;-67
2021/11/24 16:49:45;;;;;;;4.63;2.25;;;;;;;4.76;56.91;101350.38;8005787;28;20041;-66
2021/11/24 16:53:36;;;;;;;3.33;2.15;;;;;;;4.70;56.86;101347.97;8008942;28;20120;-66
2021/11/24 16:57:26;;;;;;;3.95;2.45;;;;;;;4.62;56.65;101339.56;8008324;28;20037;-66
2021/11/24 17:01:17;;;;;;;3.70;1.95;;;;;;;4.57;56.98;101344.06;8007557;28;20039;-65
2021/11/24 17:05:09;;;;;;;3.20;2.13;;;;;;;4.51;56.66;101345.16;8011377;28;20481;-65
2021/11/24 17:08:59;;;;;;;3.20;2.50;;;;;;;4.48;56.95;101347.00;8006859;28;20519;-65
2021/11/24 17:12:53;;;;;;;5.95;2.58;;;;;;;4.42;56.92;101340.25;8010600;28;20112;-65
2021/11/24 17:16:44;;;;;;;5.05;2.97;;;;;;;4.39;56.98;101321.28;8007178;28;20408;-65
2021/11/24 17:20:35;;;;;;;4.82;3.03;;;;;;;4.34;56.91;101320.59;8004528;28;20755;-65
2021/11/24 17:24:27;;;;;;;11.18;3.47;;;;;;;4.28;57.07;101306.88;8014089;28;20045;-64
2021/11/24 17:28:21;;;;;;;5.85;2.97;;;;;;;4.27;57.13;101314.75;8007814;28;20686;-66
2021/11/24 17:32:12;;;;;;;8.10;3.22;;;;;;;4.20;57.02;101303.69;8011034;28;20049;-65
2021/11/24 17:36:03;;;;;;;4.07;2.50;;;;;;;4.19;56.99;101304.56;8006784;28;20082;-65
2021/11/24 17:39:54;;;;;;;5.05;2.72;;;;;;;4.15;57.06;101300.38;8007877;28;20667;-65
2021/11/24 17:43:47;;;;;;;5.03;2.97;;;;;;;4.11;56.89;101303.97;8022877;28;20473;-65
2021/11/24 17:47:38;;;;;;;5.30;2.80;;;;;;;4.08;57.27;101308.44;8009059;28;20067;-70
2021/11/24 17:51:30;;;;;;;3.80;2.78;;;;;;;4.08;57.26;101308.44;8009349;28;20087;-68
2021/11/24 17:55:21;;;;;;;4.00;2.50;;;;;;;4.04;57.27;101302.50;8010544;28;20512;-69
2021/11/24 17:59:11;;;;;;;4.13;2.80;;;;;;;4.02;56.93;101312.09;8022150;28;20032;-70
2021/11/24 18:03:02;;;;;;;5.28;2.70;;;;;;;4.05;57.16;101308.53;8007250;28;20044;-70